In Rescue
 
Open Full Screen Window  High Contrast Mode
Wind Gusting 00 knots
03
November 19, 2019 12:59 PM EST
Present Weather: Light Rain
Weather Information
Wind Direction
  220 °
Wind Speed
  03 kt (3 mph)
Wind Gust
  00 kt (0 mph)
Altimeter
29.81 in
Visibility
5 SM
Temperature
04° C
39° F
Dewpoint
02° C
36° F
Humidity
87%
Sky Condition
Overcast @ 2,500 ft
Scattered @ 1,700 ft
MVFR

METAR KCVX 191759Z AUTO 22003KT 5SM -RA SCT017 OVC025 04/02 A2981 RMK AO2 T00370017 10040 20023

FAA Disclaimer: The data displayed is for advisory purposes only and is not to be used for flight planning or operations.